sensor_id;sensor_type;location;lat;lon;timestamp;P1;durP1;ratioP1;P2;durP2;ratioP2
66118;SDS011;52912;48.564;9.302;2023-07-22T00:01:45;5.63;;;2.50;;
66118;SDS011;52912;48.564;9.302;2023-07-22T00:04:11;7.15;;;2.30;;
66118;SDS011;52912;48.564;9.302;2023-07-22T00:06:37;3.70;;;2.35;;
66118;SDS011;52912;48.564;9.302;2023-07-22T00:09:03;5.80;;;2.67;;
66118;SDS011;52912;48.564;9.302;2023-07-22T00:11:28;6.18;;;3.20;;
66118;SDS011;52912;48.564;9.302;2023-07-22T00:13:54;5.70;;;2.90;;
66118;SDS011;52912;48.564;9.302;2023-07-22T00:16:19;13.15;;;3.33;;
66118;SDS011;52912;48.564;9.302;2023-07-22T00:18:45;6.70;;;3.00;;
66118;SDS011;52912;48.564;9.302;2023-07-22T00:21:10;5.57;;;2.65;;
66118;SDS011;52912;48.564;9.302;2023-07-22T00:23:37;3.85;;;2.63;;
66118;SDS011;52912;48.564;9.302;2023-07-22T00:26:02;5.10;;;2.72;;
66118;SDS011;52912;48.564;9.302;2023-07-22T00:28:28;4.35;;;2.42;;
66118;SDS011;52912;48.564;9.302;2023-07-22T00:30:53;5.38;;;2.60;;
66118;SDS011;52912;48.564;9.302;2023-07-22T00:33:18;5.32;;;2.67;;
66118;SDS011;52912;48.564;9.302;2023-07-22T00:35:46;4.60;;;2.55;;
66118;SDS011;52912;48.564;9.302;2023-07-22T00:38:12;4.80;;;2.50;;
66118;SDS011;52912;48.564;9.302;2023-07-22T00:40:39;6.95;;;3.00;;
66118;SDS011;52912;48.564;9.302;2023-07-22T00:43:05;3.90;;;2.40;;
66118;SDS011;52912;48.564;9.302;2023-07-22T00:45:30;5.53;;;2.70;;
66118;SDS011;52912;48.564;9.302;2023-07-22T00:47:55;5.22;;;2.47;;
66118;SDS011;52912;48.564;9.302;2023-07-22T00:50:21;4.90;;;2.65;;
66118;SDS011;52912;48.564;9.302;2023-07-22T00:52:47;3.92;;;2.47;;
66118;SDS011;52912;48.564;9.302;2023-07-22T00:55:13;3.70;;;2.20;;
66118;SDS011;52912;48.564;9.302;2023-07-22T00:57:40;5.43;;;2.38;;
66118;SDS011;52912;48.564;9.302;2023-07-22T01:00:06;4.10;;;2.20;;
66118;SDS011;52912;48.564;9.302;2023-07-22T01:02:32;4.93;;;2.58;;
66118;SDS011;52912;48.564;9.302;2023-07-22T01:04:57;3.95;;;2.35;;
66118;SDS011;52912;48.564;9.302;2023-07-22T01:07:23;5.55;;;3.08;;
66118;SDS011;52912;48.564;9.302;2023-07-22T01:09:48;6.85;;;2.75;;
66118;SDS011;52912;48.564;9.302;2023-07-22T01:12:14;6.03;;;2.67;;
66118;SDS011;52912;48.564;9.302;2023-07-22T01:14:41;6.80;;;2.80;;
66118;SDS011;52912;48.564;9.302;2023-07-22T01:17:08;5.22;;;2.53;;
66118;SDS011;52912;48.564;9.302;2023-07-22T01:19:35;4.07;;;2.28;;
66118;SDS011;52912;48.564;9.302;2023-07-22T01:22:01;5.50;;;2.67;;
66118;SDS011;52912;48.564;9.302;2023-07-22T01:24:29;5.18;;;2.38;;
66118;SDS011;52912;48.564;9.302;2023-07-22T01:26:55;3.70;;;2.45;;
66118;SDS011;52912;48.564;9.302;2023-07-22T01:29:21;4.22;;;2.38;;
66118;SDS011;52912;48.564;9.302;2023-07-22T01:31:48;3.28;;;2.15;;
66118;SDS011;52912;48.564;9.302;2023-07-22T01:34:15;4.40;;;1.90;;
66118;SDS011;52912;48.564;9.302;2023-07-22T01:36:41;4.05;;;2.20;;
66118;SDS011;52912;48.564;9.302;2023-07-22T01:39:06;4.40;;;2.20;;
66118;SDS011;52912;48.564;9.302;2023-07-22T01:41:33;5.50;;;2.53;;
66118;SDS011;52912;48.564;9.302;2023-07-22T01:43:58;3.05;;;2.20;;
66118;SDS011;52912;48.564;9.302;2023-07-22T01:46:24;5.47;;;2.50;;
66118;SDS011;52912;48.564;9.302;2023-07-22T01:48:49;4.78;;;2.63;;
66118;SDS011;52912;48.564;9.302;2023-07-22T01:51:15;5.60;;;2.22;;
66118;SDS011;52912;48.564;9.302;2023-07-22T01:53:40;5.60;;;2.40;;
66118;SDS011;52912;48.564;9.302;2023-07-22T01:56:06;5.88;;;2.00;;
66118;SDS011;52912;48.564;9.302;2023-07-22T01:58:33;4.30;;;2.47;;
66118;SDS011;52912;48.564;9.302;2023-07-22T02:00:58;3.45;;;2.22;;
66118;SDS011;52912;48.564;9.302;2023-07-22T02:03:24;4.68;;;2.40;;
66118;SDS011;52912;48.564;9.302;2023-07-22T02:05:49;4.05;;;2.30;;
66118;SDS011;52912;48.564;9.302;2023-07-22T02:08:14;5.50;;;2.38;;
66118;SDS011;52912;48.564;9.302;2023-07-22T02:10:40;5.00;;;2.10;;
66118;SDS011;52912;48.564;9.302;2023-07-22T02:13:05;4.25;;;2.40;;
66118;SDS011;52912;48.564;9.302;2023-07-22T02:15:33;10.00;;;3.20;;
66118;SDS011;52912;48.564;9.302;2023-07-22T02:17:58;3.53;;;2.33;;
66118;SDS011;52912;48.564;9.302;2023-07-22T02:20:23;4.95;;;2.42;;
66118;SDS011;52912;48.564;9.302;2023-07-22T02:22:49;7.10;;;2.50;;
66118;SDS011;52912;48.564;9.302;2023-07-22T02:25:14;4.00;;;2.30;;
66118;SDS011;52912;48.564;9.302;2023-07-22T02:27:40;5.70;;;2.17;;
66118;SDS011;52912;48.564;9.302;2023-07-22T02:30:06;5.57;;;2.40;;
66118;SDS011;52912;48.564;9.302;2023-07-22T02:32:33;4.15;;;2.28;;
66118;SDS011;52912;48.564;9.302;2023-07-22T02:34:59;2.90;;;2.17;;
66118;SDS011;52912;48.564;9.302;2023-07-22T02:37:24;4.95;;;2.25;;
66118;SDS011;52912;48.564;9.302;2023-07-22T02:39:50;6.80;;;2.33;;
66118;SDS011;52912;48.564;9.302;2023-07-22T02:42:15;6.28;;;2.50;;
66118;SDS011;52912;48.564;9.302;2023-07-22T02:44:41;4.07;;;2.58;;
66118;SDS011;52912;48.564;9.302;2023-07-22T02:47:06;4.53;;;2.40;;
66118;SDS011;52912;48.564;9.302;2023-07-22T02:49:33;5.90;;;2.60;;
66118;SDS011;52912;48.564;9.302;2023-07-22T02:51:58;3.85;;;2.45;;
66118;SDS011;52912;48.564;9.302;2023-07-22T02:54:24;3.80;;;2.30;;
66118;SDS011;52912;48.564;9.302;2023-07-22T02:56:49;4.53;;;2.38;;
66118;SDS011;52912;48.564;9.302;2023-07-22T02:59:15;4.95;;;2.72;;
66118;SDS011;52912;48.564;9.302;2023-07-22T03:01:40;3.35;;;2.35;;
66118;SDS011;52912;48.564;9.302;2023-07-22T03:04:06;3.83;;;2.40;;
66118;SDS011;52912;48.564;9.302;2023-07-22T03:06:32;4.03;;;2.42;;
66118;SDS011;52912;48.564;9.302;2023-07-22T03:08:58;3.72;;;2.38;;
66118;SDS011;52912;48.564;9.302;2023-07-22T03:11:23;3.80;;;2.10;;
66118;SDS011;52912;48.564;9.302;2023-07-22T03:13:49;3.63;;;2.38;;
66118;SDS011;52912;48.564;9.302;2023-07-22T03:16:14;5.10;;;2.50;;
66118;SDS011;52912;48.564;9.302;2023-07-22T03:18:40;3.67;;;2.47;;
66118;SDS011;52912;48.564;9.302;2023-07-22T03:21:05;4.60;;;2.55;;
66118;SDS011;52912;48.564;9.302;2023-07-22T03:23:32;5.30;;;2.35;;
66118;SDS011;52912;48.564;9.302;2023-07-22T03:25:57;4.03;;;2.47;;
66118;SDS011;52912;48.564;9.302;2023-07-22T03:28:23;6.65;;;2.40;;
66118;SDS011;52912;48.564;9.302;2023-07-22T03:30:48;6.68;;;2.45;;
66118;SDS011;52912;48.564;9.302;2023-07-22T03:33:14;4.13;;;2.20;;
66118;SDS011;52912;48.564;9.302;2023-07-22T03:35:39;3.63;;;2.30;;
66118;SDS011;52912;48.564;9.302;2023-07-22T03:38:04;4.60;;;2.25;;
66118;SDS011;52912;48.564;9.302;2023-07-22T03:40:31;3.63;;;2.08;;
66118;SDS011;52912;48.564;9.302;2023-07-22T03:42:57;5.28;;;2.40;;
66118;SDS011;52912;48.564;9.302;2023-07-22T03:45:23;3.80;;;2.00;;
66118;SDS011;52912;48.564;9.302;2023-07-22T03:47:50;6.07;;;2.30;;
66118;SDS011;52912;48.564;9.302;2023-07-22T03:50:16;4.32;;;2.20;;
66118;SDS011;52912;48.564;9.302;2023-07-22T03:52:42;4.10;;;2.15;;
66118;SDS011;52912;48.564;9.302;2023-07-22T03:55:07;3.67;;;2.17;;
66118;SDS011;52912;48.564;9.302;2023-07-22T03:57:35;5.20;;;1.98;;
66118;SDS011;52912;48.564;9.302;2023-07-22T04:00:00;4.50;;;2.10;;
66118;SDS011;52912;48.564;9.302;2023-07-22T04:02:26;3.83;;;2.50;;
66118;SDS011;52912;48.564;9.302;2023-07-22T04:04:52;4.22;;;2.00;;
66118;SDS011;52912;48.564;9.302;2023-07-22T04:07:19;4.57;;;2.15;;
66118;SDS011;52912;48.564;9.302;2023-07-22T04:09:44;4.07;;;2.25;;
66118;SDS011;52912;48.564;9.302;2023-07-22T04:12:10;3.25;;;2.00;;
66118;SDS011;52912;48.564;9.302;2023-07-22T04:14:37;3.58;;;2.22;;
66118;SDS011;52912;48.564;9.302;2023-07-22T04:17:03;3.75;;;2.05;;
66118;SDS011;52912;48.564;9.302;2023-07-22T04:19:29;4.57;;;2.10;;
66118;SDS011;52912;48.564;9.302;2023-07-22T04:21:55;4.95;;;2.28;;
66118;SDS011;52912;48.564;9.302;2023-07-22T04:24:20;3.40;;;2.25;;
66118;SDS011;52912;48.564;9.302;2023-07-22T04:26:46;3.97;;;2.08;;
66118;SDS011;52912;48.564;9.302;2023-07-22T04:29:11;3.75;;;2.15;;
66118;SDS011;52912;48.564;9.302;2023-07-22T04:31:38;4.32;;;2.10;;
66118;SDS011;52912;48.564;9.302;2023-07-22T04:34:04;6.05;;;2.20;;
66118;SDS011;52912;48.564;9.302;2023-07-22T04:36:29;4.72;;;2.30;;
66118;SDS011;52912;48.564;9.302;2023-07-22T04:38:55;3.72;;;2.38;;
66118;SDS011;52912;48.564;9.302;2023-07-22T04:41:20;2.90;;;1.90;;
66118;SDS011;52912;48.564;9.302;2023-07-22T04:43:45;4.82;;;1.92;;
66118;SDS011;52912;48.564;9.302;2023-07-22T04:46:11;5.38;;;2.60;;
66118;SDS011;52912;48.564;9.302;2023-07-22T04:48:38;3.95;;;2.15;;
66118;SDS011;52912;48.564;9.302;2023-07-22T04:51:03;3.88;;;2.40;;
66118;SDS011;52912;48.564;9.302;2023-07-22T04:53:29;5.72;;;2.20;;
66118;SDS011;52912;48.564;9.302;2023-07-22T04:55:54;3.92;;;2.00;;
66118;SDS011;52912;48.564;9.302;2023-07-22T04:58:19;5.53;;;2.08;;
66118;SDS011;52912;48.564;9.302;2023-07-22T05:00:45;4.22;;;2.22;;
66118;SDS011;52912;48.564;9.302;2023-07-22T05:03:10;3.40;;;2.00;;
66118;SDS011;52912;48.564;9.302;2023-07-22T05:05:37;4.45;;;2.10;;
66118;SDS011;52912;48.564;9.302;2023-07-22T05:08:03;4.18;;;1.85;;
66118;SDS011;52912;48.564;9.302;2023-07-22T05:10:28;3.03;;;2.08;;
66118;SDS011;52912;48.564;9.302;2023-07-22T05:12:54;4.75;;;2.25;;
66118;SDS011;52912;48.564;9.302;2023-07-22T05:15:20;3.13;;;2.00;;
66118;SDS011;52912;48.564;9.302;2023-07-22T05:17:46;3.38;;;2.13;;
66118;SDS011;52912;48.564;9.302;2023-07-22T05:20:11;4.90;;;2.20;;
66118;SDS011;52912;48.564;9.302;2023-07-22T05:22:38;4.68;;;2.40;;
66118;SDS011;52912;48.564;9.302;2023-07-22T05:25:05;5.90;;;2.20;;
66118;SDS011;52912;48.564;9.302;2023-07-22T05:27:31;3.40;;;2.17;;
66118;SDS011;52912;48.564;9.302;2023-07-22T05:29:56;4.22;;;2.22;;
66118;SDS011;52912;48.564;9.302;2023-07-22T05:32:22;3.88;;;2.08;;
66118;SDS011;52912;48.564;9.302;2023-07-22T05:34:47;7.88;;;2.70;;
66118;SDS011;52912;48.564;9.302;2023-07-22T05:37:13;2.72;;;2.10;;
66118;SDS011;52912;48.564;9.302;2023-07-22T05:39:40;6.95;;;2.47;;
66118;SDS011;52912;48.564;9.302;2023-07-22T05:42:05;4.05;;;2.38;;
66118;SDS011;52912;48.564;9.302;2023-07-22T05:44:31;4.32;;;2.60;;
66118;SDS011;52912;48.564;9.302;2023-07-22T05:46:56;5.13;;;2.28;;
66118;SDS011;52912;48.564;9.302;2023-07-22T05:49:22;4.18;;;2.40;;
66118;SDS011;52912;48.564;9.302;2023-07-22T05:51:47;3.83;;;2.25;;
66118;SDS011;52912;48.564;9.302;2023-07-22T05:54:13;5.50;;;2.50;;
66118;SDS011;52912;48.564;9.302;2023-07-22T05:56:40;4.85;;;2.30;;
66118;SDS011;52912;48.564;9.302;2023-07-22T05:59:05;5.85;;;2.20;;
66118;SDS011;52912;48.564;9.302;2023-07-22T06:01:30;4.00;;;2.40;;
66118;SDS011;52912;48.564;9.302;2023-07-22T06:03:56;6.78;;;2.33;;
66118;SDS011;52912;48.564;9.302;2023-07-22T06:06:21;4.55;;;2.05;;
66118;SDS011;52912;48.564;9.302;2023-07-22T06:08:47;4.97;;;2.30;;
66118;SDS011;52912;48.564;9.302;2023-07-22T06:11:12;3.08;;;2.22;;
66118;SDS011;52912;48.564;9.302;2023-07-22T06:13:39;6.60;;;2.50;;
66118;SDS011;52912;48.564;9.302;2023-07-22T06:16:05;5.95;;;2.33;;
66118;SDS011;52912;48.564;9.302;2023-07-22T06:18:30;4.88;;;2.45;;
66118;SDS011;52912;48.564;9.302;2023-07-22T06:20:55;3.97;;;2.30;;
66118;SDS011;52912;48.564;9.302;2023-07-22T06:23:21;3.80;;;2.17;;
66118;SDS011;52912;48.564;9.302;2023-07-22T06:25:47;4.43;;;2.20;;
66118;SDS011;52912;48.564;9.302;2023-07-22T06:28:12;3.63;;;2.17;;
66118;SDS011;52912;48.564;9.302;2023-07-22T06:30:39;4.43;;;2.33;;
66118;SDS011;52912;48.564;9.302;2023-07-22T06:33:04;3.58;;;2.45;;
66118;SDS011;52912;48.564;9.302;2023-07-22T06:35:30;3.33;;;2.10;;
66118;SDS011;52912;48.564;9.302;2023-07-22T06:37:55;4.05;;;2.20;;
66118;SDS011;52912;48.564;9.302;2023-07-22T06:40:21;2.80;;;2.03;;
66118;SDS011;52912;48.564;9.302;2023-07-22T06:42:46;4.00;;;2.30;;
66118;SDS011;52912;48.564;9.302;2023-07-22T06:45:11;3.22;;;2.10;;
66118;SDS011;52912;48.564;9.302;2023-07-22T06:47:38;3.33;;;2.33;;
66118;SDS011;52912;48.564;9.302;2023-07-22T06:50:04;3.03;;;1.85;;
66118;SDS011;52912;48.564;9.302;2023-07-22T06:52:30;5.75;;;2.30;;
66118;SDS011;52912;48.564;9.302;2023-07-22T06:54:56;6.63;;;2.35;;
66118;SDS011;52912;48.564;9.302;2023-07-22T06:57:21;6.82;;;2.33;;
66118;SDS011;52912;48.564;9.302;2023-07-22T06:59:47;3.45;;;2.22;;
66118;SDS011;52912;48.564;9.302;2023-07-22T07:02:12;5.03;;;2.30;;
66118;SDS011;52912;48.564;9.302;2023-07-22T07:04:41;3.97;;;2.10;;
66118;SDS011;52912;48.564;9.302;2023-07-22T07:07:06;3.95;;;2.50;;
66118;SDS011;52912;48.564;9.302;2023-07-22T07:09:32;3.33;;;1.85;;
66118;SDS011;52912;48.564;9.302;2023-07-22T07:11:57;6.10;;;2.30;;
66118;SDS011;52912;48.564;9.302;2023-07-22T07:14:23;3.42;;;1.92;;
66118;SDS011;52912;48.564;9.302;2023-07-22T07:16:48;3.75;;;2.15;;
66118;SDS011;52912;48.564;9.302;2023-07-22T07:19:14;5.88;;;2.38;;
66118;SDS011;52912;48.564;9.302;2023-07-22T07:21:41;4.25;;;2.00;;
66118;SDS011;52912;48.564;9.302;2023-07-22T07:24:06;5.13;;;1.92;;
66118;SDS011;52912;48.564;9.302;2023-07-22T07:26:32;2.67;;;1.83;;
66118;SDS011;52912;48.564;9.302;2023-07-22T07:28:57;3.78;;;1.85;;
66118;SDS011;52912;48.564;9.302;2023-07-22T07:31:23;3.28;;;1.88;;
66118;SDS011;52912;48.564;9.302;2023-07-22T07:33:48;4.40;;;2.00;;
66118;SDS011;52912;48.564;9.302;2023-07-22T07:36:14;4.05;;;2.08;;
66118;SDS011;52912;48.564;9.302;2023-07-22T07:38:40;3.95;;;1.98;;
66118;SDS011;52912;48.564;9.302;2023-07-22T07:41:06;3.67;;;1.90;;
66118;SDS011;52912;48.564;9.302;2023-07-22T07:43:32;6.57;;;2.33;;
66118;SDS011;52912;48.564;9.302;2023-07-22T07:46:13;4.88;;;2.20;;
66118;SDS011;52912;48.564;9.302;2023-07-22T07:48:40;3.10;;;1.83;;
66118;SDS011;52912;48.564;9.302;2023-07-22T07:51:06;4.13;;;1.90;;
66118;SDS011;52912;48.564;9.302;2023-07-22T07:53:31;3.20;;;1.95;;
66118;SDS011;52912;48.564;9.302;2023-07-22T07:55:58;2.88;;;1.90;;
66118;SDS011;52912;48.564;9.302;2023-07-22T07:58:23;2.95;;;1.88;;
66118;SDS011;52912;48.564;9.302;2023-07-22T08:00:49;3.03;;;1.70;;
66118;SDS011;52912;48.564;9.302;2023-07-22T08:03:15;6.82;;;1.88;;
66118;SDS011;52912;48.564;9.302;2023-07-22T08:05:40;3.75;;;1.90;;
66118;SDS011;52912;48.564;9.302;2023-07-22T08:08:06;2.70;;;1.65;;
66118;SDS011;52912;48.564;9.302;2023-07-22T08:10:31;3.25;;;1.75;;
66118;SDS011;52912;48.564;9.302;2023-07-22T08:12:58;4.50;;;1.90;;
66118;SDS011;52912;48.564;9.302;2023-07-22T08:15:24;3.40;;;1.85;;
66118;SDS011;52912;48.564;9.302;2023-07-22T08:17:49;4.53;;;1.85;;
66118;SDS011;52912;48.564;9.302;2023-07-22T08:20:15;7.03;;;1.75;;
66118;SDS011;52912;48.564;9.302;2023-07-22T08:22:41;3.78;;;1.70;;
66118;SDS011;52912;48.564;9.302;2023-07-22T08:25:07;3.30;;;1.70;;
66118;SDS011;52912;48.564;9.302;2023-07-22T08:27:32;3.00;;;1.60;;
66118;SDS011;52912;48.564;9.302;2023-07-22T08:29:59;5.35;;;2.13;;
66118;SDS011;52912;48.564;9.302;2023-07-22T08:32:25;4.15;;;1.67;;
66118;SDS011;52912;48.564;9.302;2023-07-22T08:34:50;3.72;;;1.90;;
66118;SDS011;52912;48.564;9.302;2023-07-22T08:37:16;2.50;;;1.80;;
66118;SDS011;52912;48.564;9.302;2023-07-22T08:39:41;6.90;;;1.73;;
66118;SDS011;52912;48.564;9.302;2023-07-22T08:42:06;3.35;;;1.75;;
66118;SDS011;52912;48.564;9.302;2023-07-22T08:44:33;3.20;;;1.88;;
66118;SDS011;52912;48.564;9.302;2023-07-22T08:47:04;2.97;;;1.90;;
66118;SDS011;52912;48.564;9.302;2023-07-22T08:49:32;3.05;;;1.90;;
66118;SDS011;52912;48.564;9.302;2023-07-22T08:51:59;3.85;;;1.90;;
66118;SDS011;52912;48.564;9.302;2023-07-22T08:54:25;2.85;;;1.85;;
66118;SDS011;52912;48.564;9.302;2023-07-22T08:56:51;3.75;;;1.92;;
66118;SDS011;52912;48.564;9.302;2023-07-22T08:59:16;3.47;;;1.90;;
66118;SDS011;52912;48.564;9.302;2023-07-22T09:01:43;3.38;;;1.90;;
66118;SDS011;52912;48.564;9.302;2023-07-22T09:04:10;2.60;;;1.80;;
66118;SDS011;52912;48.564;9.302;2023-07-22T09:06:36;2.80;;;1.40;;
66118;SDS011;52912;48.564;9.302;2023-07-22T09:09:02;3.33;;;1.70;;
66118;SDS011;52912;48.564;9.302;2023-07-22T09:11:28;2.67;;;1.70;;
66118;SDS011;52912;48.564;9.302;2023-07-22T09:13:53;3.70;;;2.00;;
66118;SDS011;52912;48.564;9.302;2023-07-22T09:16:20;3.10;;;1.88;;
66118;SDS011;52912;48.564;9.302;2023-07-22T09:18:46;2.47;;;1.70;;
66118;SDS011;52912;48.564;9.302;2023-07-22T09:21:13;3.28;;;1.40;;
66118;SDS011;52912;48.564;9.302;2023-07-22T09:23:39;3.50;;;1.70;;
66118;SDS011;52912;48.564;9.302;2023-07-22T09:26:10;2.30;;;1.70;;
66118;SDS011;52912;48.564;9.302;2023-07-22T09:28:47;2.47;;;1.70;;
66118;SDS011;52912;48.564;9.302;2023-07-22T09:31:13;1.98;;;1.60;;
66118;SDS011;52912;48.564;9.302;2023-07-22T09:33:39;5.50;;;1.80;;
66118;SDS011;52912;48.564;9.302;2023-07-22T09:36:04;2.42;;;1.60;;
66118;SDS011;52912;48.564;9.302;2023-07-22T09:38:31;4.75;;;1.67;;
66118;SDS011;52912;48.564;9.302;2023-07-22T09:40:56;3.95;;;1.77;;
66118;SDS011;52912;48.564;9.302;2023-07-22T09:43:22;2.50;;;1.50;;
66118;SDS011;52912;48.564;9.302;2023-07-22T09:45:48;2.55;;;1.50;;
66118;SDS011;52912;48.564;9.302;2023-07-22T09:48:14;3.03;;;1.60;;
66118;SDS011;52912;48.564;9.302;2023-07-22T09:50:40;4.63;;;1.52;;
66118;SDS011;52912;48.564;9.302;2023-07-22T09:53:05;3.85;;;1.50;;
66118;SDS011;52912;48.564;9.302;2023-07-22T09:55:32;2.95;;;1.60;;
66118;SDS011;52912;48.564;9.302;2023-07-22T09:57:59;1.77;;;1.40;;
66118;SDS011;52912;48.564;9.302;2023-07-22T10:00:27;2.97;;;1.50;;
66118;SDS011;52912;48.564;9.302;2023-07-22T10:02:55;2.35;;;1.42;;
66118;SDS011;52912;48.564;9.302;2023-07-22T10:05:22;2.43;;;1.50;;
66118;SDS011;52912;48.564;9.302;2023-07-22T10:07:48;2.83;;;1.38;;
66118;SDS011;52912;48.564;9.302;2023-07-22T10:10:16;4.50;;;1.67;;
66118;SDS011;52912;48.564;9.302;2023-07-22T10:12:43;3.80;;;1.58;;
66118;SDS011;52912;48.564;9.302;2023-07-22T10:15:09;2.97;;;1.98;;
66118;SDS011;52912;48.564;9.302;2023-07-22T10:17:35;2.58;;;1.50;;
66118;SDS011;52912;48.564;9.302;2023-07-22T10:20:01;3.78;;;1.60;;
66118;SDS011;52912;48.564;9.302;2023-07-22T10:22:27;2.22;;;1.60;;
66118;SDS011;52912;48.564;9.302;2023-07-22T10:24:53;3.90;;;1.50;;
66118;SDS011;52912;48.564;9.302;2023-07-22T10:27:21;4.43;;;1.55;;
66118;SDS011;52912;48.564;9.302;2023-07-22T10:29:49;2.85;;;1.70;;
66118;SDS011;52912;48.564;9.302;2023-07-22T10:32:14;2.40;;;1.70;;
66118;SDS011;52912;48.564;9.302;2023-07-22T10:34:40;3.28;;;1.45;;
66118;SDS011;52912;48.564;9.302;2023-07-22T10:37:05;2.33;;;1.48;;
66118;SDS011;52912;48.564;9.302;2023-07-22T10:39:34;4.10;;;1.52;;
66118;SDS011;52912;48.564;9.302;2023-07-22T10:42:00;2.78;;;1.70;;
66118;SDS011;52912;48.564;9.302;2023-07-22T10:44:26;4.63;;;1.70;;
66118;SDS011;52912;48.564;9.302;2023-07-22T10:46:57;2.45;;;1.60;;
66118;SDS011;52912;48.564;9.302;2023-07-22T10:49:23;3.33;;;1.60;;
66118;SDS011;52912;48.564;9.302;2023-07-22T10:51:49;3.33;;;1.90;;
66118;SDS011;52912;48.564;9.302;2023-07-22T10:54:30;2.88;;;1.63;;
66118;SDS011;52912;48.564;9.302;2023-07-22T10:56:57;4.00;;;1.70;;
66118;SDS011;52912;48.564;9.302;2023-07-22T10:59:27;2.80;;;1.55;;
66118;SDS011;52912;48.564;9.302;2023-07-22T11:01:53;6.03;;;1.70;;
66118;SDS011;52912;48.564;9.302;2023-07-22T11:04:24;6.30;;;1.60;;
66118;SDS011;52912;48.564;9.302;2023-07-22T11:06:53;2.38;;;1.50;;
66118;SDS011;52912;48.564;9.302;2023-07-22T11:12:01;2.92;;;1.45;;
66118;SDS011;52912;48.564;9.302;2023-07-22T11:14:28;15.10;;;1.70;;
66118;SDS011;52912;48.564;9.302;2023-07-22T11:16:56;2.83;;;1.60;;
66118;SDS011;52912;48.564;9.302;2023-07-22T11:19:24;1.90;;;1.70;;
66118;SDS011;52912;48.564;9.302;2023-07-22T11:21:51;2.33;;;1.60;;
66118;SDS011;52912;48.564;9.302;2023-07-22T11:24:17;3.83;;;1.58;;
66118;SDS011;52912;48.564;9.302;2023-07-22T11:26:44;3.78;;;1.88;;
66118;SDS011;52912;48.564;9.302;2023-07-22T11:29:10;3.13;;;1.50;;
66118;SDS011;52912;48.564;9.302;2023-07-22T11:31:37;2.78;;;1.83;;
66118;SDS011;52912;48.564;9.302;2023-07-22T11:34:03;3.72;;;1.65;;
66118;SDS011;52912;48.564;9.302;2023-07-22T11:36:30;2.65;;;1.75;;
66118;SDS011;52912;48.564;9.302;2023-07-22T11:39:00;3.10;;;1.90;;
66118;SDS011;52912;48.564;9.302;2023-07-22T11:41:26;2.95;;;1.70;;
66118;SDS011;52912;48.564;9.302;2023-07-22T11:43:52;5.15;;;1.77;;
66118;SDS011;52912;48.564;9.302;2023-07-22T11:46:17;4.63;;;2.00;;
66118;SDS011;52912;48.564;9.302;2023-07-22T11:48:49;2.08;;;1.60;;
66118;SDS011;52912;48.564;9.302;2023-07-22T11:51:16;2.67;;;1.90;;
66118;SDS011;52912;48.564;9.302;2023-07-22T11:53:43;5.20;;;1.92;;
66118;SDS011;52912;48.564;9.302;2023-07-22T11:56:11;3.33;;;1.90;;
66118;SDS011;52912;48.564;9.302;2023-07-22T11:58:37;4.68;;;2.05;;
66118;SDS011;52912;48.564;9.302;2023-07-22T12:01:04;2.50;;;1.70;;
66118;SDS011;52912;48.564;9.302;2023-07-22T12:03:31;3.28;;;1.98;;
66118;SDS011;52912;48.564;9.302;2023-07-22T12:06:00;3.88;;;2.10;;
66118;SDS011;52912;48.564;9.302;2023-07-22T12:08:26;3.78;;;2.03;;
66118;SDS011;52912;48.564;9.302;2023-07-22T12:10:57;4.50;;;2.10;;
66118;SDS011;52912;48.564;9.302;2023-07-22T12:13:23;3.08;;;2.05;;
66118;SDS011;52912;48.564;9.302;2023-07-22T12:15:58;4.65;;;2.00;;
66118;SDS011;52912;48.564;9.302;2023-07-22T12:18:24;4.35;;;2.00;;
66118;SDS011;52912;48.564;9.302;2023-07-22T12:20:50;3.72;;;2.10;;
66118;SDS011;52912;48.564;9.302;2023-07-22T12:23:15;3.00;;;2.00;;
66118;SDS011;52912;48.564;9.302;2023-07-22T12:25:41;3.33;;;2.13;;
66118;SDS011;52912;48.564;9.302;2023-07-22T12:28:08;3.58;;;1.83;;
66118;SDS011;52912;48.564;9.302;2023-07-22T12:30:33;3.13;;;1.90;;
66118;SDS011;52912;48.564;9.302;2023-07-22T12:32:58;3.83;;;2.28;;
66118;SDS011;52912;48.564;9.302;2023-07-22T12:35:24;3.38;;;2.10;;
66118;SDS011;52912;48.564;9.302;2023-07-22T12:37:49;4.55;;;2.00;;
66118;SDS011;52912;48.564;9.302;2023-07-22T12:40:15;3.50;;;2.08;;
66118;SDS011;52912;48.564;9.302;2023-07-22T12:42:40;4.20;;;1.83;;
66118;SDS011;52912;48.564;9.302;2023-07-22T12:45:08;4.70;;;2.33;;
66118;SDS011;52912;48.564;9.302;2023-07-22T12:47:34;5.28;;;2.03;;
66118;SDS011;52912;48.564;9.302;2023-07-22T12:49:59;4.05;;;2.20;;
66118;SDS011;52912;48.564;9.302;2023-07-22T12:52:25;4.50;;;2.20;;
66118;SDS011;52912;48.564;9.302;2023-07-22T12:54:50;3.60;;;2.30;;
66118;SDS011;52912;48.564;9.302;2023-07-22T12:57:15;3.88;;;2.22;;
66118;SDS011;52912;48.564;9.302;2023-07-22T12:59:41;6.65;;;2.28;;
66118;SDS011;52912;48.564;9.302;2023-07-22T13:02:08;4.63;;;2.00;;
66118;SDS011;52912;48.564;9.302;2023-07-22T13:04:33;2.85;;;1.80;;
66118;SDS011;52912;48.564;9.302;2023-07-22T13:06:59;5.38;;;2.05;;
66118;SDS011;52912;48.564;9.302;2023-07-22T13:09:24;3.50;;;1.98;;
66118;SDS011;52912;48.564;9.302;2023-07-22T13:11:50;5.40;;;2.20;;
66118;SDS011;52912;48.564;9.302;2023-07-22T13:14:15;3.42;;;1.90;;
66118;SDS011;52912;48.564;9.302;2023-07-22T13:16:41;4.22;;;2.20;;
66118;SDS011;52912;48.564;9.302;2023-07-22T13:19:08;2.88;;;2.10;;
66118;SDS011;52912;48.564;9.302;2023-07-22T13:21:33;3.70;;;2.13;;
66118;SDS011;52912;48.564;9.302;2023-07-22T13:23:59;4.03;;;2.45;;
66118;SDS011;52912;48.564;9.302;2023-07-22T13:26:25;2.92;;;1.98;;
66118;SDS011;52912;48.564;9.302;2023-07-22T13:28:50;3.55;;;2.10;;
66118;SDS011;52912;48.564;9.302;2023-07-22T13:31:16;5.93;;;2.20;;
66118;SDS011;52912;48.564;9.302;2023-07-22T13:33:41;3.97;;;2.17;;
66118;SDS011;52912;48.564;9.302;2023-07-22T13:36:08;2.50;;;1.92;;
66118;SDS011;52912;48.564;9.302;2023-07-22T13:38:33;5.07;;;2.55;;
66118;SDS011;52912;48.564;9.302;2023-07-22T13:40:59;4.53;;;2.10;;
66118;SDS011;52912;48.564;9.302;2023-07-22T13:43:24;3.83;;;2.20;;
66118;SDS011;52912;48.564;9.302;2023-07-22T13:45:50;5.30;;;2.13;;
66118;SDS011;52912;48.564;9.302;2023-07-22T13:48:15;3.38;;;2.13;;
66118;SDS011;52912;48.564;9.302;2023-07-22T13:50:41;5.70;;;2.40;;
66118;SDS011;52912;48.564;9.302;2023-07-22T13:53:07;3.80;;;2.25;;
66118;SDS011;52912;48.564;9.302;2023-07-22T13:55:33;3.60;;;2.33;;
66118;SDS011;52912;48.564;9.302;2023-07-22T13:57:58;8.90;;;2.55;;
66118;SDS011;52912;48.564;9.302;2023-07-22T14:00:24;5.85;;;2.53;;
66118;SDS011;52912;48.564;9.302;2023-07-22T14:02:49;4.93;;;2.75;;
66118;SDS011;52912;48.564;9.302;2023-07-22T14:05:15;4.45;;;2.50;;
66118;SDS011;52912;48.564;9.302;2023-07-22T14:07:40;3.35;;;2.35;;
66118;SDS011;52912;48.564;9.302;2023-07-22T14:10:07;4.50;;;2.60;;
66118;SDS011;52912;48.564;9.302;2023-07-22T14:12:33;3.72;;;2.35;;
66118;SDS011;52912;48.564;9.302;2023-07-22T14:14:59;3.78;;;2.30;;
66118;SDS011;52912;48.564;9.302;2023-07-22T14:17:25;3.22;;;2.15;;
66118;SDS011;52912;48.564;9.302;2023-07-22T14:19:50;4.95;;;2.58;;
66118;SDS011;52912;48.564;9.302;2023-07-22T14:22:15;3.95;;;2.47;;
66118;SDS011;52912;48.564;9.302;2023-07-22T14:24:41;5.93;;;2.67;;
66118;SDS011;52912;48.564;9.302;2023-07-22T14:27:08;7.05;;;2.60;;
66118;SDS011;52912;48.564;9.302;2023-07-22T14:29:33;6.88;;;2.70;;
66118;SDS011;52912;48.564;9.302;2023-07-22T14:31:59;4.00;;;2.60;;
66118;SDS011;52912;48.564;9.302;2023-07-22T14:34:24;4.18;;;2.70;;
66118;SDS011;52912;48.564;9.302;2023-07-22T14:36:50;4.10;;;2.60;;
66118;SDS011;52912;48.564;9.302;2023-07-22T14:39:15;4.80;;;2.53;;
66118;SDS011;52912;48.564;9.302;2023-07-22T14:41:41;3.15;;;2.35;;
66118;SDS011;52912;48.564;9.302;2023-07-22T14:44:08;5.05;;;2.75;;